sensor_id;sensor_type;location;lat;lon;timestamp;P1;durP1;ratioP1;P2;durP2;ratioP2
15354;SDS011;7777;52.254;9.618;2022-08-01T00:01:58;4.50;;;3.23;;
15354;SDS011;7777;52.254;9.618;2022-08-01T00:04:24;4.70;;;3.60;;
15354;SDS011;7777;52.254;9.618;2022-08-01T00:06:50;4.97;;;3.83;;
15354;SDS011;7777;52.254;9.618;2022-08-01T00:09:16;5.23;;;3.60;;
15354;SDS011;7777;52.254;9.618;2022-08-01T00:11:41;9.67;;;4.50;;
15354;SDS011;7777;52.254;9.618;2022-08-01T00:14:07;4.63;;;3.67;;
15354;SDS011;7777;52.254;9.618;2022-08-01T00:16:34;4.63;;;3.63;;
15354;SDS011;7777;52.254;9.618;2022-08-01T00:19:01;5.37;;;4.50;;
15354;SDS011;7777;52.254;9.618;2022-08-01T00:21:27;11.20;;;3.93;;
15354;SDS011;7777;52.254;9.618;2022-08-01T00:23:52;4.33;;;3.83;;
15354;SDS011;7777;52.254;9.618;2022-08-01T00:26:18;6.73;;;3.80;;
15354;SDS011;7777;52.254;9.618;2022-08-01T00:28:44;6.23;;;3.80;;
15354;SDS011;7777;52.254;9.618;2022-08-01T00:31:10;7.70;;;3.63;;
15354;SDS011;7777;52.254;9.618;2022-08-01T00:33:36;7.80;;;4.07;;
15354;SDS011;7777;52.254;9.618;2022-08-01T00:36:02;5.03;;;3.80;;
15354;SDS011;7777;52.254;9.618;2022-08-01T00:38:28;4.93;;;3.70;;
15354;SDS011;7777;52.254;9.618;2022-08-01T00:40:54;4.97;;;3.13;;
15354;SDS011;7777;52.254;9.618;2022-08-01T00:43:20;3.60;;;3.30;;
15354;SDS011;7777;52.254;9.618;2022-08-01T00:45:45;5.10;;;3.03;;
15354;SDS011;7777;52.254;9.618;2022-08-01T00:48:11;7.13;;;3.00;;
15354;SDS011;7777;52.254;9.618;2022-08-01T00:50:37;3.27;;;2.67;;
15354;SDS011;7777;52.254;9.618;2022-08-01T00:53:03;3.30;;;2.70;;
15354;SDS011;7777;52.254;9.618;2022-08-01T00:55:29;4.77;;;3.33;;
15354;SDS011;7777;52.254;9.618;2022-08-01T00:57:56;3.50;;;2.87;;
15354;SDS011;7777;52.254;9.618;2022-08-01T01:00:24;3.77;;;2.97;;
15354;SDS011;7777;52.254;9.618;2022-08-01T01:02:50;5.40;;;2.80;;
15354;SDS011;7777;52.254;9.618;2022-08-01T01:05:16;3.03;;;2.53;;
15354;SDS011;7777;52.254;9.618;2022-08-01T01:08:05;2.60;;;2.40;;
15354;SDS011;7777;52.254;9.618;2022-08-01T01:16:10;2.57;;;2.03;;
15354;SDS011;7777;52.254;9.618;2022-08-01T01:21:31;2.93;;;2.10;;
15354;SDS011;7777;52.254;9.618;2022-08-01T01:27:20;2.43;;;2.07;;
15354;SDS011;7777;52.254;9.618;2022-08-01T01:30:23;2.53;;;1.90;;
15354;SDS011;7777;52.254;9.618;2022-08-01T01:32:52;3.73;;;2.00;;
15354;SDS011;7777;52.254;9.618;2022-08-01T01:35:23;4.80;;;2.60;;
15354;SDS011;7777;52.254;9.618;2022-08-01T01:38:01;3.20;;;2.07;;
15354;SDS011;7777;52.254;9.618;2022-08-01T01:40:34;2.93;;;1.87;;
15354;SDS011;7777;52.254;9.618;2022-08-01T01:43:01;2.67;;;1.83;;
15354;SDS011;7777;52.254;9.618;2022-08-01T01:45:26;4.27;;;1.80;;
15354;SDS011;7777;52.254;9.618;2022-08-01T01:47:54;3.93;;;2.30;;
15354;SDS011;7777;52.254;9.618;2022-08-01T01:50:22;3.27;;;2.10;;
15354;SDS011;7777;52.254;9.618;2022-08-01T01:52:50;3.13;;;2.23;;
15354;SDS011;7777;52.254;9.618;2022-08-01T01:55:17;5.43;;;2.10;;
15354;SDS011;7777;52.254;9.618;2022-08-01T01:57:44;2.10;;;1.80;;
15354;SDS011;7777;52.254;9.618;2022-08-01T02:00:12;5.67;;;2.60;;
15354;SDS011;7777;52.254;9.618;2022-08-01T02:02:39;5.60;;;2.20;;
15354;SDS011;7777;52.254;9.618;2022-08-01T02:05:08;3.53;;;2.40;;
15354;SDS011;7777;52.254;9.618;2022-08-01T02:07:36;2.27;;;2.00;;
15354;SDS011;7777;52.254;9.618;2022-08-01T02:10:04;6.07;;;2.47;;
15354;SDS011;7777;52.254;9.618;2022-08-01T02:12:33;4.50;;;2.50;;
15354;SDS011;7777;52.254;9.618;2022-08-01T02:15:05;2.47;;;2.27;;
15354;SDS011;7777;52.254;9.618;2022-08-01T02:17:31;4.63;;;3.33;;
15354;SDS011;7777;52.254;9.618;2022-08-01T02:20:06;6.87;;;3.50;;
15354;SDS011;7777;52.254;9.618;2022-08-01T02:22:33;3.90;;;2.57;;
15354;SDS011;7777;52.254;9.618;2022-08-01T02:25:23;3.90;;;2.37;;
15354;SDS011;7777;52.254;9.618;2022-08-01T02:30:33;4.83;;;2.40;;
15354;SDS011;7777;52.254;9.618;2022-08-01T02:33:17;5.17;;;2.20;;
15354;SDS011;7777;52.254;9.618;2022-08-01T02:35:47;2.87;;;1.90;;
15354;SDS011;7777;52.254;9.618;2022-08-01T02:38:17;2.17;;;1.90;;
15354;SDS011;7777;52.254;9.618;2022-08-01T02:40:46;4.00;;;2.23;;
15354;SDS011;7777;52.254;9.618;2022-08-01T02:43:15;2.40;;;2.00;;
15354;SDS011;7777;52.254;9.618;2022-08-01T02:45:47;3.50;;;2.13;;
15354;SDS011;7777;52.254;9.618;2022-08-01T02:48:18;3.70;;;2.27;;
15354;SDS011;7777;52.254;9.618;2022-08-01T02:50:47;6.63;;;2.60;;
15354;SDS011;7777;52.254;9.618;2022-08-01T02:53:15;4.10;;;2.53;;
15354;SDS011;7777;52.254;9.618;2022-08-01T02:55:44;2.60;;;2.13;;
15354;SDS011;7777;52.254;9.618;2022-08-01T02:58:12;3.53;;;2.43;;
15354;SDS011;7777;52.254;9.618;2022-08-01T03:00:42;3.27;;;2.20;;
15354;SDS011;7777;52.254;9.618;2022-08-01T03:03:09;14.00;;;2.53;;
15354;SDS011;7777;52.254;9.618;2022-08-01T03:05:36;2.47;;;2.27;;
15354;SDS011;7777;52.254;9.618;2022-08-01T03:08:05;3.03;;;2.30;;
15354;SDS011;7777;52.254;9.618;2022-08-01T03:10:32;5.73;;;2.60;;
15354;SDS011;7777;52.254;9.618;2022-08-01T03:13:05;3.57;;;2.40;;
15354;SDS011;7777;52.254;9.618;2022-08-01T03:15:35;4.93;;;2.33;;
15354;SDS011;7777;52.254;9.618;2022-08-01T03:18:05;14.00;;;3.10;;
15354;SDS011;7777;52.254;9.618;2022-08-01T03:20:33;3.63;;;2.50;;
15354;SDS011;7777;52.254;9.618;2022-08-01T03:23:00;5.43;;;2.27;;
15354;SDS011;7777;52.254;9.618;2022-08-01T03:25:31;2.50;;;2.00;;
15354;SDS011;7777;52.254;9.618;2022-08-01T03:27:59;3.83;;;2.73;;
15354;SDS011;7777;52.254;9.618;2022-08-01T03:30:29;3.73;;;2.17;;
15354;SDS011;7777;52.254;9.618;2022-08-01T03:32:57;2.27;;;1.90;;
15354;SDS011;7777;52.254;9.618;2022-08-01T03:35:26;2.77;;;1.83;;
15354;SDS011;7777;52.254;9.618;2022-08-01T03:37:57;8.73;;;2.43;;
15354;SDS011;7777;52.254;9.618;2022-08-01T03:40:31;3.07;;;2.10;;
15354;SDS011;7777;52.254;9.618;2022-08-01T03:43:12;4.80;;;2.70;;
15354;SDS011;7777;52.254;9.618;2022-08-01T03:45:49;4.60;;;2.20;;
15354;SDS011;7777;52.254;9.618;2022-08-01T03:48:18;2.30;;;2.10;;
15354;SDS011;7777;52.254;9.618;2022-08-01T03:50:49;2.37;;;2.00;;
15354;SDS011;7777;52.254;9.618;2022-08-01T03:53:21;5.93;;;2.60;;
15354;SDS011;7777;52.254;9.618;2022-08-01T03:55:50;2.70;;;2.10;;
15354;SDS011;7777;52.254;9.618;2022-08-01T03:58:17;3.40;;;2.47;;
15354;SDS011;7777;52.254;9.618;2022-08-01T04:00:43;6.40;;;2.53;;
15354;SDS011;7777;52.254;9.618;2022-08-01T04:03:10;3.63;;;2.30;;
15354;SDS011;7777;52.254;9.618;2022-08-01T04:05:40;3.50;;;2.70;;
15354;SDS011;7777;52.254;9.618;2022-08-01T04:08:07;3.50;;;2.33;;
15354;SDS011;7777;52.254;9.618;2022-08-01T04:10:33;4.50;;;2.63;;
15354;SDS011;7777;52.254;9.618;2022-08-01T04:12:59;5.80;;;2.33;;
15354;SDS011;7777;52.254;9.618;2022-08-01T04:15:25;3.87;;;2.37;;
15354;SDS011;7777;52.254;9.618;2022-08-01T04:17:50;5.60;;;3.10;;
15354;SDS011;7777;52.254;9.618;2022-08-01T04:20:16;4.00;;;3.20;;
15354;SDS011;7777;52.254;9.618;2022-08-01T04:22:42;4.10;;;3.43;;
15354;SDS011;7777;52.254;9.618;2022-08-01T04:25:15;3.70;;;3.20;;
15354;SDS011;7777;52.254;9.618;2022-08-01T04:27:48;3.70;;;3.00;;
15354;SDS011;7777;52.254;9.618;2022-08-01T04:30:21;5.87;;;3.77;;
15354;SDS011;7777;52.254;9.618;2022-08-01T04:32:52;5.17;;;3.20;;
15354;SDS011;7777;52.254;9.618;2022-08-01T04:35:20;7.10;;;3.50;;
15354;SDS011;7777;52.254;9.618;2022-08-01T04:37:47;6.17;;;3.90;;
15354;SDS011;7777;52.254;9.618;2022-08-01T04:40:15;4.77;;;3.80;;
15354;SDS011;7777;52.254;9.618;2022-08-01T04:42:42;4.70;;;4.17;;
15354;SDS011;7777;52.254;9.618;2022-08-01T04:45:08;6.40;;;4.27;;
15354;SDS011;7777;52.254;9.618;2022-08-01T04:47:34;9.77;;;4.80;;
15354;SDS011;7777;52.254;9.618;2022-08-01T04:50:05;6.63;;;4.30;;
15354;SDS011;7777;52.254;9.618;2022-08-01T04:52:36;7.30;;;4.97;;
15354;SDS011;7777;52.254;9.618;2022-08-01T04:55:03;5.67;;;4.23;;
15354;SDS011;7777;52.254;9.618;2022-08-01T04:57:37;5.87;;;4.10;;
15354;SDS011;7777;52.254;9.618;2022-08-01T05:00:06;4.57;;;4.17;;
15354;SDS011;7777;52.254;9.618;2022-08-01T05:02:33;5.23;;;3.53;;
15354;SDS011;7777;52.254;9.618;2022-08-01T05:04:59;6.30;;;3.80;;
15354;SDS011;7777;52.254;9.618;2022-08-01T05:07:25;6.27;;;3.97;;
15354;SDS011;7777;52.254;9.618;2022-08-01T05:09:51;3.93;;;3.40;;
15354;SDS011;7777;52.254;9.618;2022-08-01T05:12:17;3.60;;;3.07;;
15354;SDS011;7777;52.254;9.618;2022-08-01T05:14:42;6.53;;;3.00;;
15354;SDS011;7777;52.254;9.618;2022-08-01T05:17:09;6.83;;;2.90;;
15354;SDS011;7777;52.254;9.618;2022-08-01T05:19:36;3.00;;;2.40;;
15354;SDS011;7777;52.254;9.618;2022-08-01T05:22:05;3.03;;;2.50;;
15354;SDS011;7777;52.254;9.618;2022-08-01T05:24:32;2.97;;;2.43;;
15354;SDS011;7777;52.254;9.618;2022-08-01T05:27:01;4.73;;;2.20;;
15354;SDS011;7777;52.254;9.618;2022-08-01T05:29:27;5.33;;;2.07;;
15354;SDS011;7777;52.254;9.618;2022-08-01T05:31:53;1.80;;;1.50;;
15354;SDS011;7777;52.254;9.618;2022-08-01T05:34:19;2.60;;;1.97;;
15354;SDS011;7777;52.254;9.618;2022-08-01T05:36:45;5.73;;;2.57;;
15354;SDS011;7777;52.254;9.618;2022-08-01T05:39:12;4.23;;;1.93;;
15354;SDS011;7777;52.254;9.618;2022-08-01T05:41:38;3.43;;;1.80;;
15354;SDS011;7777;52.254;9.618;2022-08-01T05:44:05;3.03;;;2.10;;
15354;SDS011;7777;52.254;9.618;2022-08-01T05:46:31;3.13;;;1.90;;
15354;SDS011;7777;52.254;9.618;2022-08-01T05:48:58;1.97;;;1.73;;
15354;SDS011;7777;52.254;9.618;2022-08-01T05:51:28;3.70;;;1.90;;
15354;SDS011;7777;52.254;9.618;2022-08-01T05:53:54;2.70;;;1.60;;
15354;SDS011;7777;52.254;9.618;2022-08-01T05:56:20;2.80;;;1.77;;
15354;SDS011;7777;52.254;9.618;2022-08-01T05:58:47;4.27;;;2.20;;
15354;SDS011;7777;52.254;9.618;2022-08-01T06:01:19;2.87;;;1.50;;
15354;SDS011;7777;52.254;9.618;2022-08-01T06:03:45;3.93;;;1.70;;
15354;SDS011;7777;52.254;9.618;2022-08-01T06:06:12;2.97;;;2.10;;
15354;SDS011;7777;52.254;9.618;2022-08-01T06:08:39;5.20;;;2.10;;
15354;SDS011;7777;52.254;9.618;2022-08-01T06:11:05;2.63;;;2.17;;
15354;SDS011;7777;52.254;9.618;2022-08-01T06:13:31;5.53;;;2.37;;
15354;SDS011;7777;52.254;9.618;2022-08-01T06:15:57;2.80;;;2.30;;
15354;SDS011;7777;52.254;9.618;2022-08-01T06:18:23;3.03;;;2.57;;
15354;SDS011;7777;52.254;9.618;2022-08-01T06:20:49;2.93;;;2.33;;
15354;SDS011;7777;52.254;9.618;2022-08-01T06:23:15;2.50;;;2.20;;
15354;SDS011;7777;52.254;9.618;2022-08-01T06:25:41;5.70;;;3.00;;
15354;SDS011;7777;52.254;9.618;2022-08-01T06:28:08;2.90;;;2.30;;
15354;SDS011;7777;52.254;9.618;2022-08-01T06:30:34;2.80;;;2.07;;
15354;SDS011;7777;52.254;9.618;2022-08-01T06:33:00;3.37;;;2.20;;
15354;SDS011;7777;52.254;9.618;2022-08-01T06:35:27;4.13;;;2.63;;
15354;SDS011;7777;52.254;9.618;2022-08-01T06:37:54;3.87;;;2.53;;
15354;SDS011;7777;52.254;9.618;2022-08-01T06:40:23;3.47;;;2.37;;
15354;SDS011;7777;52.254;9.618;2022-08-01T06:42:49;4.57;;;2.57;;
15354;SDS011;7777;52.254;9.618;2022-08-01T06:45:15;3.53;;;2.50;;
15354;SDS011;7777;52.254;9.618;2022-08-01T06:47:42;2.87;;;2.53;;
15354;SDS011;7777;52.254;9.618;2022-08-01T06:50:10;3.27;;;1.77;;
15354;SDS011;7777;52.254;9.618;2022-08-01T06:52:36;1.53;;;1.30;;
15354;SDS011;7777;52.254;9.618;2022-08-01T06:55:03;1.50;;;1.10;;
15354;SDS011;7777;52.254;9.618;2022-08-01T06:57:29;3.00;;;1.10;;
15354;SDS011;7777;52.254;9.618;2022-08-01T06:59:55;1.77;;;0.80;;
15354;SDS011;7777;52.254;9.618;2022-08-01T07:02:21;2.60;;;0.50;;
15354;SDS011;7777;52.254;9.618;2022-08-01T07:04:48;1.07;;;0.80;;
15354;SDS011;7777;52.254;9.618;2022-08-01T07:07:13;0.87;;;0.60;;
15354;SDS011;7777;52.254;9.618;2022-08-01T07:09:39;4.43;;;1.20;;
15354;SDS011;7777;52.254;9.618;2022-08-01T07:12:08;1.20;;;0.93;;
15354;SDS011;7777;52.254;9.618;2022-08-01T07:14:35;2.90;;;1.20;;
15354;SDS011;7777;52.254;9.618;2022-08-01T07:17:00;1.40;;;1.10;;
15354;SDS011;7777;52.254;9.618;2022-08-01T07:19:26;1.93;;;1.13;;
15354;SDS011;7777;52.254;9.618;2022-08-01T07:21:52;1.20;;;1.10;;
15354;SDS011;7777;52.254;9.618;2022-08-01T07:24:18;1.10;;;0.97;;
15354;SDS011;7777;52.254;9.618;2022-08-01T07:26:45;2.10;;;1.20;;
15354;SDS011;7777;52.254;9.618;2022-08-01T07:29:13;1.87;;;1.50;;
15354;SDS011;7777;52.254;9.618;2022-08-01T07:31:38;2.63;;;1.13;;
15354;SDS011;7777;52.254;9.618;2022-08-01T07:34:04;1.20;;;0.87;;
15354;SDS011;7777;52.254;9.618;2022-08-01T07:36:30;2.00;;;1.20;;
15354;SDS011;7777;52.254;9.618;2022-08-01T07:38:56;4.37;;;1.30;;
15354;SDS011;7777;52.254;9.618;2022-08-01T07:41:21;1.60;;;1.23;;
15354;SDS011;7777;52.254;9.618;2022-08-01T07:43:48;2.00;;;1.60;;
15354;SDS011;7777;52.254;9.618;2022-08-01T07:46:14;2.40;;;1.30;;
15354;SDS011;7777;52.254;9.618;2022-08-01T07:48:40;2.13;;;1.30;;
15354;SDS011;7777;52.254;9.618;2022-08-01T07:51:07;1.47;;;1.17;;
15354;SDS011;7777;52.254;9.618;2022-08-01T07:53:36;2.70;;;1.87;;
15354;SDS011;7777;52.254;9.618;2022-08-01T07:56:03;1.60;;;1.50;;
15354;SDS011;7777;52.254;9.618;2022-08-01T07:58:33;3.13;;;1.47;;
15354;SDS011;7777;52.254;9.618;2022-08-01T08:00:59;2.67;;;1.70;;
15354;SDS011;7777;52.254;9.618;2022-08-01T08:03:24;3.20;;;1.53;;
15354;SDS011;7777;52.254;9.618;2022-08-01T08:05:51;3.13;;;1.60;;
15354;SDS011;7777;52.254;9.618;2022-08-01T08:08:17;3.07;;;1.50;;
15354;SDS011;7777;52.254;9.618;2022-08-01T08:10:43;2.13;;;1.70;;
15354;SDS011;7777;52.254;9.618;2022-08-01T08:13:09;1.60;;;1.50;;
15354;SDS011;7777;52.254;9.618;2022-08-01T08:15:35;2.20;;;1.57;;
15354;SDS011;7777;52.254;9.618;2022-08-01T08:18:02;2.60;;;1.80;;
15354;SDS011;7777;52.254;9.618;2022-08-01T08:20:28;2.03;;;1.70;;
15354;SDS011;7777;52.254;9.618;2022-08-01T08:22:55;4.10;;;1.70;;
15354;SDS011;7777;52.254;9.618;2022-08-01T08:25:23;2.67;;;1.80;;
15354;SDS011;7777;52.254;9.618;2022-08-01T08:27:49;1.53;;;1.40;;
15354;SDS011;7777;52.254;9.618;2022-08-01T08:30:16;3.73;;;1.83;;
15354;SDS011;7777;52.254;9.618;2022-08-01T08:32:41;1.67;;;1.50;;
15354;SDS011;7777;52.254;9.618;2022-08-01T08:35:07;2.37;;;1.70;;
15354;SDS011;7777;52.254;9.618;2022-08-01T08:37:34;1.53;;;1.10;;
15354;SDS011;7777;52.254;9.618;2022-08-01T08:40:01;4.40;;;1.40;;
15354;SDS011;7777;52.254;9.618;2022-08-01T08:42:29;4.03;;;1.40;;
15354;SDS011;7777;52.254;9.618;2022-08-01T08:44:55;4.20;;;1.10;;
15354;SDS011;7777;52.254;9.618;2022-08-01T08:47:21;1.07;;;0.80;;
15354;SDS011;7777;52.254;9.618;2022-08-01T08:49:51;1.87;;;1.30;;
15354;SDS011;7777;52.254;9.618;2022-08-01T08:52:22;0.97;;;0.70;;
15354;SDS011;7777;52.254;9.618;2022-08-01T08:54:49;1.17;;;0.57;;
15354;SDS011;7777;52.254;9.618;2022-08-01T08:57:16;2.77;;;0.80;;
15354;SDS011;7777;52.254;9.618;2022-08-01T08:59:45;1.47;;;0.70;;
15354;SDS011;7777;52.254;9.618;2022-08-01T09:02:12;1.13;;;0.80;;
15354;SDS011;7777;52.254;9.618;2022-08-01T09:04:38;1.90;;;0.90;;
15354;SDS011;7777;52.254;9.618;2022-08-01T09:07:05;1.27;;;1.10;;
15354;SDS011;7777;52.254;9.618;2022-08-01T09:09:32;1.67;;;1.20;;
15354;SDS011;7777;52.254;9.618;2022-08-01T09:11:59;1.50;;;0.80;;
15354;SDS011;7777;52.254;9.618;2022-08-01T09:14:25;1.13;;;1.03;;
15354;SDS011;7777;52.254;9.618;2022-08-01T09:17:04;2.00;;;1.23;;
15354;SDS011;7777;52.254;9.618;2022-08-01T09:22:11;1.47;;;1.00;;
15354;SDS011;7777;52.254;9.618;2022-08-01T09:24:42;1.60;;;1.13;;
15354;SDS011;7777;52.254;9.618;2022-08-01T09:27:33;2.03;;;1.20;;
15354;SDS011;7777;52.254;9.618;2022-08-01T09:30:09;1.30;;;1.00;;
15354;SDS011;7777;52.254;9.618;2022-08-01T09:33:04;2.43;;;1.13;;
15354;SDS011;7777;52.254;9.618;2022-08-01T09:35:34;3.37;;;1.00;;
15354;SDS011;7777;52.254;9.618;2022-08-01T09:38:14;1.70;;;1.00;;
15354;SDS011;7777;52.254;9.618;2022-08-01T09:40:51;1.83;;;0.80;;
15354;SDS011;7777;52.254;9.618;2022-08-01T09:43:21;1.47;;;0.80;;
15354;SDS011;7777;52.254;9.618;2022-08-01T09:45:49;1.77;;;0.80;;
15354;SDS011;7777;52.254;9.618;2022-08-01T09:48:16;2.50;;;0.80;;
15354;SDS011;7777;52.254;9.618;2022-08-01T09:50:44;1.03;;;0.83;;
15354;SDS011;7777;52.254;9.618;2022-08-01T09:53:12;0.97;;;0.70;;
15354;SDS011;7777;52.254;9.618;2022-08-01T09:55:39;1.70;;;0.80;;
15354;SDS011;7777;52.254;9.618;2022-08-01T09:58:06;2.80;;;0.80;;
15354;SDS011;7777;52.254;9.618;2022-08-01T10:00:33;2.83;;;1.27;;
15354;SDS011;7777;52.254;9.618;2022-08-01T10:03:00;0.70;;;0.67;;
15354;SDS011;7777;52.254;9.618;2022-08-01T10:05:49;0.80;;;0.53;;
15354;SDS011;7777;52.254;9.618;2022-08-01T10:08:16;2.40;;;0.67;;
15354;SDS011;7777;52.254;9.618;2022-08-01T10:10:45;1.60;;;0.77;;
15354;SDS011;7777;52.254;9.618;2022-08-01T10:13:34;0.80;;;0.70;;
15354;SDS011;7777;52.254;9.618;2022-08-01T10:16:00;1.17;;;0.80;;
15354;SDS011;7777;52.254;9.618;2022-08-01T10:18:31;1.87;;;0.90;;
15354;SDS011;7777;52.254;9.618;2022-08-01T10:20:59;1.07;;;0.70;;
15354;SDS011;7777;52.254;9.618;2022-08-01T10:23:26;2.90;;;0.70;;
15354;SDS011;7777;52.254;9.618;2022-08-01T10:25:53;3.93;;;1.30;;
15354;SDS011;7777;52.254;9.618;2022-08-01T10:28:20;1.60;;;1.00;;
15354;SDS011;7777;52.254;9.618;2022-08-01T10:30:48;2.77;;;0.90;;
15354;SDS011;7777;52.254;9.618;2022-08-01T10:33:14;2.00;;;0.60;;
15354;SDS011;7777;52.254;9.618;2022-08-01T10:35:40;3.17;;;1.03;;
15354;SDS011;7777;52.254;9.618;2022-08-01T10:38:07;2.13;;;1.10;;
15354;SDS011;7777;52.254;9.618;2022-08-01T10:40:33;1.27;;;0.73;;
15354;SDS011;7777;52.254;9.618;2022-08-01T10:42:59;2.07;;;1.10;;
15354;SDS011;7777;52.254;9.618;2022-08-01T10:45:25;2.47;;;1.10;;
15354;SDS011;7777;52.254;9.618;2022-08-01T10:48:00;2.43;;;1.40;;
15354;SDS011;7777;52.254;9.618;2022-08-01T10:50:35;3.00;;;1.10;;
15354;SDS011;7777;52.254;9.618;2022-08-01T10:53:15;4.33;;;1.30;;
15354;SDS011;7777;52.254;9.618;2022-08-01T10:55:57;4.17;;;1.87;;
15354;SDS011;7777;52.254;9.618;2022-08-01T10:58:32;4.30;;;1.90;;
15354;SDS011;7777;52.254;9.618;2022-08-01T11:03:44;5.10;;;2.53;;
15354;SDS011;7777;52.254;9.618;2022-08-01T11:07:06;4.07;;;2.77;;
15354;SDS011;7777;52.254;9.618;2022-08-01T11:09:44;5.63;;;3.70;;
15354;SDS011;7777;52.254;9.618;2022-08-01T11:12:37;5.30;;;3.60;;
15354;SDS011;7777;52.254;9.618;2022-08-01T11:17:44;7.83;;;4.10;;
15354;SDS011;7777;52.254;9.618;2022-08-01T11:20:19;6.90;;;4.43;;
15354;SDS011;7777;52.254;9.618;2022-08-01T11:30:43;6.00;;;2.97;;
15354;SDS011;7777;52.254;9.618;2022-08-01T11:33:13;6.00;;;2.60;;
15354;SDS011;7777;52.254;9.618;2022-08-01T11:38:34;5.77;;;2.57;;
15354;SDS011;7777;52.254;9.618;2022-08-01T11:43:59;6.63;;;2.50;;
15354;SDS011;7777;52.254;9.618;2022-08-01T11:57:27;4.87;;;2.80;;
15354;SDS011;7777;52.254;9.618;2022-08-01T11:59:58;8.90;;;3.00;;
15354;SDS011;7777;52.254;9.618;2022-08-01T12:02:26;4.73;;;2.50;;
15354;SDS011;7777;52.254;9.618;2022-08-01T12:05:04;5.03;;;2.67;;
15354;SDS011;7777;52.254;9.618;2022-08-01T12:07:35;8.03;;;3.00;;
15354;SDS011;7777;52.254;9.618;2022-08-01T12:10:03;5.97;;;3.30;;
15354;SDS011;7777;52.254;9.618;2022-08-01T12:12:32;5.77;;;3.07;;
15354;SDS011;7777;52.254;9.618;2022-08-01T12:15:01;9.27;;;3.63;;
15354;SDS011;7777;52.254;9.618;2022-08-01T12:17:31;8.13;;;3.47;;
15354;SDS011;7777;52.254;9.618;2022-08-01T12:20:04;5.93;;;2.77;;
15354;SDS011;7777;52.254;9.618;2022-08-01T12:22:35;7.07;;;2.67;;
15354;SDS011;7777;52.254;9.618;2022-08-01T12:25:12;7.20;;;2.77;;
15354;SDS011;7777;52.254;9.618;2022-08-01T12:27:40;4.37;;;2.73;;
15354;SDS011;7777;52.254;9.618;2022-08-01T12:30:09;9.00;;;3.63;;
15354;SDS011;7777;52.254;9.618;2022-08-01T12:32:38;7.67;;;3.40;;
15354;SDS011;7777;52.254;9.618;2022-08-01T12:35:07;7.47;;;3.07;;
15354;SDS011;7777;52.254;9.618;2022-08-01T12:37:48;7.00;;;3.23;;
15354;SDS011;7777;52.254;9.618;2022-08-01T12:40:20;5.27;;;2.70;;
15354;SDS011;7777;52.254;9.618;2022-08-01T12:42:49;7.77;;;3.17;;
15354;SDS011;7777;52.254;9.618;2022-08-01T12:45:18;7.17;;;3.20;;
15354;SDS011;7777;52.254;9.618;2022-08-01T12:47:49;6.23;;;2.60;;
15354;SDS011;7777;52.254;9.618;2022-08-01T12:50:18;6.30;;;2.70;;
15354;SDS011;7777;52.254;9.618;2022-08-01T12:52:46;3.83;;;2.63;;
15354;SDS011;7777;52.254;9.618;2022-08-01T12:55:15;3.70;;;2.47;;
15354;SDS011;7777;52.254;9.618;2022-08-01T12:57:47;5.23;;;2.40;;
15354;SDS011;7777;52.254;9.618;2022-08-01T13:02:47;5.10;;;1.93;;
15354;SDS011;7777;52.254;9.618;2022-08-01T13:05:16;3.90;;;2.60;;
15354;SDS011;7777;52.254;9.618;2022-08-01T13:07:47;6.43;;;2.47;;
15354;SDS011;7777;52.254;9.618;2022-08-01T13:10:23;4.20;;;2.17;;
15354;SDS011;7777;52.254;9.618;2022-08-01T13:12:56;3.57;;;2.07;;
15354;SDS011;7777;52.254;9.618;2022-08-01T13:17:58;3.57;;;1.87;;
15354;SDS011;7777;52.254;9.618;2022-08-01T13:20:28;6.53;;;2.70;;
15354;SDS011;7777;52.254;9.618;2022-08-01T13:23:10;4.90;;;2.50;;
15354;SDS011;7777;52.254;9.618;2022-08-01T13:26:02;7.03;;;2.93;;
15354;SDS011;7777;52.254;9.618;2022-08-01T13:28:28;6.23;;;2.60;;
15354;SDS011;7777;52.254;9.618;2022-08-01T13:31:01;5.70;;;3.00;;
15354;SDS011;7777;52.254;9.618;2022-08-01T13:33:45;6.03;;;2.90;;
15354;SDS011;7777;52.254;9.618;2022-08-01T13:36:13;8.70;;;3.17;;
15354;SDS011;7777;52.254;9.618;2022-08-01T13:38:41;5.53;;;3.17;;
15354;SDS011;7777;52.254;9.618;2022-08-01T13:41:26;5.23;;;2.80;;
15354;SDS011;7777;52.254;9.618;2022-08-01T13:43:52;6.03;;;3.10;;
15354;SDS011;7777;52.254;9.618;2022-08-01T13:46:19;7.50;;;3.23;;
15354;SDS011;7777;52.254;9.618;2022-08-01T13:48:45;5.67;;;3.30;;
15354;SDS011;7777;52.254;9.618;2022-08-01T13:51:11;8.53;;;3.27;;
15354;SDS011;7777;52.254;9.618;2022-08-01T13:53:37;6.97;;;3.33;;
15354;SDS011;7777;52.254;9.618;2022-08-01T13:56:02;8.13;;;3.47;;
15354;SDS011;7777;52.254;9.618;2022-08-01T13:58:28;9.47;;;4.00;;
15354;SDS011;7777;52.254;9.618;2022-08-01T14:00:55;8.83;;;3.30;;
15354;SDS011;7777;52.254;9.618;2022-08-01T14:03:21;7.93;;;3.67;;
15354;SDS011;7777;52.254;9.618;2022-08-01T14:05:47;3.87;;;3.03;;
15354;SDS011;7777;52.254;9.618;2022-08-01T14:08:14;5.87;;;2.53;;
15354;SDS011;7777;52.254;9.618;2022-08-01T14:10:40;4.30;;;3.00;;
15354;SDS011;7777;52.254;9.618;2022-08-01T14:13:06;5.20;;;3.43;;
15354;SDS011;7777;52.254;9.618;2022-08-01T14:15:32;6.83;;;3.43;;
15354;SDS011;7777;52.254;9.618;2022-08-01T14:17:58;7.27;;;3.40;;
15354;SDS011;7777;52.254;9.618;2022-08-01T14:20:24;7.63;;;3.30;;
15354;SDS011;7777;52.254;9.618;2022-08-01T14:22:51;6.07;;;3.00;;
15354;SDS011;7777;52.254;9.618;2022-08-01T14:25:16;10.10;;;3.50;;
15354;SDS011;7777;52.254;9.618;2022-08-01T14:27:43;4.33;;;2.53;;
15354;SDS011;7777;52.254;9.618;2022-08-01T14:30:10;7.13;;;2.50;;
15354;SDS011;7777;52.254;9.618;2022-08-01T14:32:37;8.90;;;2.70;;
15354;SDS011;7777;52.254;9.618;2022-08-01T14:35:04;6.93;;;2.53;;
15354;SDS011;7777;52.254;9.618;2022-08-01T14:37:31;5.53;;;2.60;;
15354;SDS011;7777;52.254;9.618;2022-08-01T14:39:58;8.73;;;3.07;;
15354;SDS011;7777;52.254;9.618;2022-08-01T14:42:25;8.13;;;3.30;;
15354;SDS011;7777;52.254;9.618;2022-08-01T14:44:51;5.23;;;2.77;;
15354;SDS011;7777;52.254;9.618;2022-08-01T14:47:17;6.77;;;3.00;;
15354;SDS011;7777;52.254;9.618;2022-08-01T14:49:43;4.97;;;2.47;;
15354;SDS011;7777;52.254;9.618;2022-08-01T14:52:08;6.57;;;2.93;;
15354;SDS011;7777;52.254;9.618;2022-08-01T14:54:34;8.20;;;2.93;;
15354;SDS011;7777;52.254;9.618;2022-08-01T14:57:00;5.23;;;2.70;;
15354;SDS011;7777;52.254;9.618;2022-08-01T14:59:25;6.37;;;2.83;;
15354;SDS011;7777;52.254;9.618;2022-08-01T15:01:51;10.17;;;2.93;;
15354;SDS011;7777;52.254;9.618;2022-08-01T15:04:17;9.43;;;3.10;;
15354;SDS011;7777;52.254;9.618;2022-08-01T15:06:43;5.50;;;2.47;;
15354;SDS011;7777;52.254;9.618;2022-08-01T15:09:15;5.73;;;2.77;;
15354;SDS011;7777;52.254;9.618;2022-08-01T15:11:41;5.47;;;2.73;;
15354;SDS011;7777;52.254;9.618;2022-08-01T15:14:07;10.67;;;2.70;;
15354;SDS011;7777;52.254;9.618;2022-08-01T15:16:51;6.53;;;2.33;;
15354;SDS011;7777;52.254;9.618;2022-08-01T15:19:17;4.87;;;2.30;;
15354;SDS011;7777;52.254;9.618;2022-08-01T15:21:42;7.87;;;2.67;;
15354;SDS011;7777;52.254;9.618;2022-08-01T15:24:08;6.17;;;2.87;;
15354;SDS011;7777;52.254;9.618;2022-08-01T15:26:34;7.13;;;2.63;;
15354;SDS011;7777;52.254;9.618;2022-08-01T15:29:00;6.77;;;2.53;;
15354;SDS011;7777;52.254;9.618;2022-08-01T15:31:26;6.10;;;2.77;;
15354;SDS011;7777;52.254;9.618;2022-08-01T15:33:52;6.87;;;2.40;;
15354;SDS011;7777;52.254;9.618;2022-08-01T15:36:18;4.07;;;1.83;;
15354;SDS011;7777;52.254;9.618;2022-08-01T15:38:43;7.23;;;2.40;;
15354;SDS011;7777;52.254;9.618;2022-08-01T15:41:09;6.70;;;2.00;;
15354;SDS011;7777;52.254;9.618;2022-08-01T15:43:35;6.07;;;2.30;;
15354;SDS011;7777;52.254;9.618;2022-08-01T15:46:01;7.60;;;2.47;;
15354;SDS011;7777;52.254;9.618;2022-08-01T15:48:28;4.47;;;2.30;;
15354;SDS011;7777;52.254;9.618;2022-08-01T15:50:54;7.40;;;2.30;;
15354;SDS011;7777;52.254;9.618;2022-08-01T15:53:20;6.53;;;2.10;;
15354;SDS011;7777;52.254;9.618;2022-08-01T15:55:46;5.47;;;2.07;;
15354;SDS011;7777;52.254;9.618;2022-08-01T15:58:11;6.47;;;2.23;;
15354;SDS011;7777;52.254;9.618;2022-08-01T16:00:37;10.23;;;2.37;;
15354;SDS011;7777;52.254;9.618;2022-08-01T16:03:03;7.40;;;2.00;;